Time;durP1;ratioP1;P1;durP2;ratioP2;P2;SDS_P1;SDS_P2;PMS_P1;PMS_P2;Temp;Humidity;BMP_temperature;BMP_pressure;BME280_temperature;BME280_humidity;BME280_pressure;Samples;Min_cycle;Max_cycle;Signal;HPM_P1;HPM_P2
2022/01/03 00:00:19;;;;;;;3.17;2.20;;;;;;;;;;4977365;28;20480;-61
2022/01/03 00:02:45;;;;;;;4.57;1.83;;;;;;;;;;4976165;28;20468;-60
2022/01/03 00:05:12;;;;;;;3.00;2.20;;;;;;;;;;4976308;28;20940;-60
2022/01/03 00:07:39;;;;;;;2.47;1.70;;;;;;;;;;4976177;28;20492;-60
2022/01/03 00:10:05;;;;;;;3.43;2.40;;;;;;;;;;4976475;28;20841;-61
2022/01/03 00:12:32;;;;;;;3.43;1.90;;;;;;;;;;4976270;28;20491;-61
2022/01/03 00:14:59;;;;;;;3.27;2.30;;;;;;;;;;4975816;28;20452;-60
2022/01/03 00:17:25;;;;;;;3.83;2.10;;;;;;;;;;4976308;28;20409;-59
2022/01/03 00:19:51;;;;;;;3.03;2.10;;;;;;;;;;4976240;28;20492;-57
2022/01/03 00:22:21;;;;;;;4.60;4.07;;;;;;;;;;4976389;28;20433;-57
2022/01/03 00:24:52;;;;;;;3.50;3.00;;;;;;;;;;4975784;28;20480;-59
2022/01/03 00:27:22;;;;;;;4.83;1.73;;;;;;;;;;4975873;28;20410;-60
2022/01/03 00:29:51;;;;;;;4.97;2.27;;;;;;;;;;4975783;28;20413;-61
2022/01/03 00:32:17;;;;;;;3.50;2.20;;;;;;;;;;4975628;28;20840;-60
2022/01/03 00:34:45;;;;;;;4.93;2.03;;;;;;;;;;4975472;28;20453;-59
2022/01/03 00:37:11;;;;;;;5.87;2.57;;;;;;;;;;4973853;28;20756;-61
2022/01/03 00:39:37;;;;;;;3.50;1.90;;;;;;;;;;4975412;28;20420;-59
2022/01/03 00:42:04;;;;;;;3.77;2.13;;;;;;;;;;4974689;28;20449;-60
2022/01/03 00:44:30;;;;;;;3.03;1.83;;;;;;;;;;4974733;28;20803;-60
2022/01/03 00:46:57;;;;;;;5.50;2.40;;;;;;;;;;4974613;28;20433;-56
2022/01/03 00:49:23;;;;;;;4.90;2.13;;;;;;;;;;4974726;28;20805;-58
2022/01/03 00:51:49;;;;;;;9.63;2.00;;;;;;;;;;4974359;28;20421;-58
2022/01/03 00:54:15;;;;;;;3.20;2.20;;;;;;;;;;4974534;28;20412;-59
2022/01/03 00:56:48;;;;;;;2.90;2.27;;;;;;;;;;4974417;28;20477;-60
2022/01/03 00:59:22;;;;;;;7.40;2.40;;;;;;;;;;4974369;28;20409;-59
2022/01/03 01:01:49;;;;;;;7.07;2.90;;;;;;;;;;4974196;28;20436;-57
2022/01/03 01:04:16;;;;;;;6.87;2.17;;;;;;;;;;4974210;28;20406;-59
2022/01/03 01:06:43;;;;;;;4.30;2.20;;;;;;;;;;4974059;28;20413;-60
2022/01/03 01:09:11;;;;;;;6.47;2.27;;;;;;;;;;4974077;28;20488;-59
2022/01/03 01:11:40;;;;;;;3.17;1.90;;;;;;;;;;4974237;28;20433;-57
2022/01/03 01:14:06;;;;;;;5.30;2.77;;;;;;;;;;4973893;28;20507;-57
2022/01/03 01:16:32;;;;;;;12.03;2.40;;;;;;;;;;4973919;28;20456;-59
2022/01/03 01:18:58;;;;;;;3.50;2.20;;;;;;;;;;4973875;28;20405;-59
2022/01/03 01:21:25;;;;;;;3.77;1.97;;;;;;;;;;4974011;28;20841;-59
2022/01/03 01:23:52;;;;;;;3.57;2.33;;;;;;;;;;4974194;28;20488;-61
2022/01/03 01:29:04;;;;;;;4.10;1.90;;;;;;;;;;4974325;28;20950;-58
2022/01/03 01:31:33;;;;;;;4.93;2.13;;;;;;;;;;4973657;28;20796;-61
2022/01/03 01:34:02;;;;;;;4.93;2.07;;;;;;;;;;4973719;28;20430;-61
2022/01/03 01:36:29;;;;;;;3.07;1.90;;;;;;;;;;4973812;28;20467;-57
2022/01/03 01:39:04;;;;;;;4.03;2.30;;;;;;;;;;4973597;28;20460;-61
2022/01/03 01:41:30;;;;;;;5.37;2.50;;;;;;;;;;4934417;28;1148901;-59
2022/01/03 01:44:00;;;;;;;5.00;1.93;;;;;;;;;;4973083;28;20544;-60
2022/01/03 01:46:28;;;;;;;2.87;2.30;;;;;;;;;;4974534;28;20818;-56
2022/01/03 01:48:54;;;;;;;2.47;1.87;;;;;;;;;;4974634;28;20420;-57
2022/01/03 01:51:21;;;;;;;3.50;2.00;;;;;;;;;;4976809;28;20437;-59
2022/01/03 01:53:49;;;;;;;2.70;1.50;;;;;;;;;;4978625;28;20424;-57
2022/01/03 01:56:17;;;;;;;6.10;2.60;;;;;;;;;;4978199;28;20460;-60
2022/01/03 01:58:58;;;;;;;8.60;2.70;;;;;;;;;;4978167;28;20903;-59
2022/01/03 02:01:47;;;;;;;7.57;1.87;;;;;;;;;;4978339;28;20938;-57
2022/01/03 02:04:15;;;;;;;5.07;2.00;;;;;;;;;;4978516;28;20396;-60
2022/01/03 02:06:44;;;;;;;6.67;1.80;;;;;;;;;;4978049;28;20948;-57
2022/01/03 02:09:19;;;;;;;2.80;1.90;;;;;;;;;;4978233;28;20781;-58
2022/01/03 02:11:48;;;;;;;3.13;1.47;;;;;;;;;;4978000;28;20897;-59
2022/01/03 02:14:14;;;;;;;6.07;2.07;;;;;;;;;;4977839;28;20425;-59
2022/01/03 02:16:41;;;;;;;3.07;1.70;;;;;;;;;;4978064;28;20492;-59
2022/01/03 02:19:07;;;;;;;7.20;2.57;;;;;;;;;;4978536;28;20524;-58
2022/01/03 02:21:33;;;;;;;6.50;1.87;;;;;;;;;;4977662;28;20417;-59
2022/01/03 02:23:59;;;;;;;4.00;1.70;;;;;;;;;;4977711;28;20424;-60
2022/01/03 02:26:28;;;;;;;5.10;2.17;;;;;;;;;;4978201;28;20401;-60
2022/01/03 02:28:54;;;;;;;6.73;1.93;;;;;;;;;;4978016;28;20405;-60
2022/01/03 02:31:21;;;;;;;4.33;1.70;;;;;;;;;;4977572;28;20560;-60
2022/01/03 02:33:47;;;;;;;4.50;2.10;;;;;;;;;;4977599;28;20405;-58
2022/01/03 02:36:14;;;;;;;3.57;1.40;;;;;;;;;;4977846;28;20456;-56
2022/01/03 02:38:40;;;;;;;3.40;1.57;;;;;;;;;;4977478;28;20409;-60
2022/01/03 02:41:06;;;;;;;6.50;2.17;;;;;;;;;;4977211;28;20448;-60
2022/01/03 02:43:32;;;;;;;6.67;2.07;;;;;;;;;;4977734;28;20422;-60
2022/01/03 02:45:58;;;;;;;6.20;1.60;;;;;;;;;;4977375;28;20437;-58
2022/01/03 02:48:26;;;;;;;3.10;1.60;;;;;;;;;;4977634;28;20413;-58
2022/01/03 02:50:52;;;;;;;4.90;1.70;;;;;;;;;;4977463;28;20870;-58
2022/01/03 02:53:19;;;;;;;5.87;2.27;;;;;;;;;;4977209;28;20413;-59
2022/01/03 02:55:45;;;;;;;3.93;1.93;;;;;;;;;;4976958;28;20456;-59
2022/01/03 02:58:12;;;;;;;2.73;1.70;;;;;;;;;;4977152;28;20405;-56
2022/01/03 03:00:45;;;;;;;6.80;1.70;;;;;;;;;;4976591;28;20886;-57
2022/01/03 03:03:11;;;;;;;5.27;1.80;;;;;;;;;;4977538;28;20417;-56
2022/01/03 03:05:37;;;;;;;2.60;1.80;;;;;;;;;;4976860;28;20910;-59
2022/01/03 03:08:03;;;;;;;5.23;2.00;;;;;;;;;;4976862;28;20441;-57
2022/01/03 03:10:30;;;;;;;7.00;2.10;;;;;;;;;;4976937;28;20890;-58
2022/01/03 03:12:56;;;;;;;3.37;1.80;;;;;;;;;;4977056;28;20803;-57
2022/01/03 03:15:22;;;;;;;7.40;2.10;;;;;;;;;;4977145;28;20768;-55
2022/01/03 03:17:49;;;;;;;2.93;1.63;;;;;;;;;;4977006;28;20422;-58
2022/01/03 03:20:17;;;;;;;4.63;1.90;;;;;;;;;;4976812;28;20455;-57
2022/01/03 03:22:43;;;;;;;8.73;1.83;;;;;;;;;;4976602;28;20601;-59
2022/01/03 03:25:28;;;;;;;4.27;1.73;;;;;;;;;;4976597;28;20549;-56
2022/01/03 03:27:57;;;;;;;5.60;3.13;;;;;;;;;;4977214;28;20409;-60
2022/01/03 03:30:24;;;;;;;4.57;1.67;;;;;;;;;;4976869;28;20807;-58
2022/01/03 03:32:51;;;;;;;5.03;1.80;;;;;;;;;;4976514;28;20432;-57
2022/01/03 03:35:18;;;;;;;5.30;2.10;;;;;;;;;;4976408;28;20551;-58
2022/01/03 03:37:44;;;;;;;12.77;2.07;;;;;;;;;;4976479;28;20469;-59
2022/01/03 03:40:11;;;;;;;4.70;1.40;;;;;;;;;;4976934;28;20541;-57
2022/01/03 03:42:38;;;;;;;7.10;3.07;;;;;;;;;;4976157;28;20441;-58
2022/01/03 03:45:04;;;;;;;5.87;1.57;;;;;;;;;;4976369;28;20405;-59
2022/01/03 03:47:30;;;;;;;5.90;1.60;;;;;;;;;;4976285;28;20401;-57
2022/01/03 03:49:56;;;;;;;3.90;2.20;;;;;;;;;;4976391;28;20407;-58
2022/01/03 03:52:22;;;;;;;8.27;1.80;;;;;;;;;;4976120;28;20463;-61
2022/01/03 03:54:48;;;;;;;5.80;1.93;;;;;;;;;;4976355;28;20457;-59
2022/01/03 03:57:14;;;;;;;5.30;1.80;;;;;;;;;;4976165;28;20420;-59
2022/01/03 03:59:40;;;;;;;2.10;1.47;;;;;;;;;;4976110;28;20405;-56
2022/01/03 04:02:07;;;;;;;5.27;2.73;;;;;;;;;;4976266;28;20532;-56
2022/01/03 04:04:34;;;;;;;4.47;1.70;;;;;;;;;;4976208;28;20473;-58
2022/01/03 04:07:00;;;;;;;6.23;1.60;;;;;;;;;;4976645;28;20415;-60
2022/01/03 04:09:26;;;;;;;3.93;1.70;;;;;;;;;;4976028;28;20496;-60
2022/01/03 04:11:52;;;;;;;5.70;1.50;;;;;;;;;;4975181;28;20443;-60
2022/01/03 04:14:19;;;;;;;3.07;2.00;;;;;;;;;;4975761;28;20398;-56
2022/01/03 04:16:45;;;;;;;5.00;1.80;;;;;;;;;;4975654;28;20453;-60
2022/01/03 04:19:11;;;;;;;5.53;2.07;;;;;;;;;;4975687;28;20412;-57
2022/01/03 04:21:39;;;;;;;5.27;2.13;;;;;;;;;;4975600;28;20871;-56
2022/01/03 04:24:07;;;;;;;4.80;1.60;;;;;;;;;;4975616;28;20401;-58
2022/01/03 04:26:33;;;;;;;3.63;1.80;;;;;;;;;;4975881;28;20427;-60
2022/01/03 04:28:59;;;;;;;2.57;1.40;;;;;;;;;;4975704;28;20428;-59
2022/01/03 04:31:25;;;;;;;5.13;2.30;;;;;;;;;;4975833;28;20425;-60
2022/01/03 04:33:51;;;;;;;7.80;2.40;;;;;;;;;;4975482;28;20411;-58
2022/01/03 04:36:17;;;;;;;4.20;1.57;;;;;;;;;;4975544;28;20449;-60
2022/01/03 04:38:43;;;;;;;3.43;1.40;;;;;;;;;;4975518;28;20814;-60
2022/01/03 04:41:11;;;;;;;4.57;1.70;;;;;;;;;;4998776;23;20525;-66
2022/01/03 04:43:37;;;;;;;3.20;1.60;;;;;;;;;;4975355;28;20413;-66
2022/01/03 04:46:03;;;;;;;5.17;1.90;;;;;;;;;;4975622;28;20444;-66
2022/01/03 04:48:30;;;;;;;6.53;2.13;;;;;;;;;;4975008;28;20453;-66
2022/01/03 04:50:56;;;;;;;5.63;1.40;;;;;;;;;;4974851;28;20401;-66
2022/01/03 04:53:25;;;;;;;5.60;1.80;;;;;;;;;;4975179;28;20404;-66
2022/01/03 04:55:51;;;;;;;4.60;1.70;;;;;;;;;;4975106;28;20526;-66
2022/01/03 04:58:17;;;;;;;3.40;2.13;;;;;;;;;;4975140;28;20413;-66
2022/01/03 05:00:43;;;;;;;4.60;1.60;;;;;;;;;;4974800;28;20397;-66
2022/01/03 05:03:10;;;;;;;5.33;1.60;;;;;;;;;;4975068;28;20417;-66
2022/01/03 05:05:36;;;;;;;5.37;2.00;;;;;;;;;;4974890;28;20393;-66
2022/01/03 05:08:02;;;;;;;4.50;1.97;;;;;;;;;;4974770;28;20489;-66
2022/01/03 05:10:28;;;;;;;10.30;1.77;;;;;;;;;;4973680;28;20757;-66
2022/01/03 05:12:54;;;;;;;6.07;2.40;;;;;;;;;;4974911;28;20417;-66
2022/01/03 05:15:20;;;;;;;4.83;1.57;;;;;;;;;;4974620;28;20816;-66
2022/01/03 05:17:46;;;;;;;5.60;2.03;;;;;;;;;;4974712;28;20860;-66
2022/01/03 05:20:14;;;;;;;6.13;1.80;;;;;;;;;;4974910;28;20401;-66
2022/01/03 05:22:40;;;;;;;4.63;1.83;;;;;;;;;;4974689;28;20488;-66
2022/01/03 05:25:07;;;;;;;5.27;1.90;;;;;;;;;;4974529;28;20484;-66
2022/01/03 05:27:34;;;;;;;5.67;1.83;;;;;;;;;;4975327;28;20409;-66
2022/01/03 05:30:01;;;;;;;4.47;1.60;;;;;;;;;;4974756;28;20499;-66
2022/01/03 05:32:27;;;;;;;7.07;2.20;;;;;;;;;;4974364;28;20425;-66
2022/01/03 05:34:53;;;;;;;5.33;2.00;;;;;;;;;;4974469;28;20441;-66
2022/01/03 05:37:19;;;;;;;4.67;2.13;;;;;;;;;;4974674;28;20401;-66
2022/01/03 05:39:45;;;;;;;9.70;2.17;;;;;;;;;;4974389;28;20394;-66
2022/01/03 05:42:11;;;;;;;6.60;1.87;;;;;;;;;;4974300;28;20452;-66
2022/01/03 05:44:37;;;;;;;6.40;2.13;;;;;;;;;;4974639;28;20760;-66
2022/01/03 05:47:03;;;;;;;2.70;1.53;;;;;;;;;;4974597;28;20811;-67
2022/01/03 05:49:29;;;;;;;4.03;1.80;;;;;;;;;;4974425;28;20389;-67
2022/01/03 05:51:55;;;;;;;5.67;1.90;;;;;;;;;;4974555;28;20449;-67
2022/01/03 05:54:21;;;;;;;2.93;1.57;;;;;;;;;;4974753;28;20393;-67
2022/01/03 05:56:47;;;;;;;3.50;1.80;;;;;;;;;;4974946;28;20455;-67
2022/01/03 05:59:13;;;;;;;3.73;1.60;;;;;;;;;;4974989;28;20488;-67
2022/01/03 06:01:40;;;;;;;6.07;1.60;;;;;;;;;;4974680;28;20952;-67
2022/01/03 06:04:24;;;;;;;6.27;2.20;;;;;;;;;;4974654;28;20486;-67
2022/01/03 06:06:54;;;;;;;4.27;1.63;;;;;;;;;;4973848;28;20922;-67
2022/01/03 06:09:22;;;;;;;6.70;1.47;;;;;;;;;;4974774;28;20420;-67
2022/01/03 06:11:48;;;;;;;3.30;1.77;;;;;;;;;;4974364;28;20471;-67
2022/01/03 06:14:18;;;;;;;3.63;1.53;;;;;;;;;;4974115;28;20448;-67
2022/01/03 06:16:45;;;;;;;3.47;1.57;;;;;;;;;;4973977;28;20784;-67
2022/01/03 06:19:12;;;;;;;4.90;2.27;;;;;;;;;;4974233;28;20416;-67
2022/01/03 06:21:41;;;;;;;4.80;1.70;;;;;;;;;;4974014;28;20827;-67
2022/01/03 06:24:09;;;;;;;3.53;1.73;;;;;;;;;;4973947;28;20413;-67
2022/01/03 06:26:36;;;;;;;8.00;1.50;;;;;;;;;;4974009;28;20458;-67
2022/01/03 06:29:02;;;;;;;4.83;2.27;;;;;;;;;;4972683;28;20785;-67
2022/01/03 06:31:29;;;;;;;8.40;1.80;;;;;;;;;;4973976;28;20934;-67
2022/01/03 06:33:55;;;;;;;3.17;1.60;;;;;;;;;;4973963;28;21096;-67
2022/01/03 06:36:21;;;;;;;3.00;1.63;;;;;;;;;;4975930;28;20547;-67
2022/01/03 06:38:47;;;;;;;4.93;1.80;;;;;;;;;;4977557;28;20401;-67
2022/01/03 06:41:13;;;;;;;3.93;1.63;;;;;;;;;;4977499;28;20432;-67
2022/01/03 06:43:39;;;;;;;4.20;1.83;;;;;;;;;;4977695;28;20400;-67
2022/01/03 06:46:05;;;;;;;6.00;2.03;;;;;;;;;;4977443;28;20922;-67
2022/01/03 06:48:31;;;;;;;7.07;1.67;;;;;;;;;;4977354;28;20408;-67
2022/01/03 06:50:57;;;;;;;6.50;2.07;;;;;;;;;;4977535;28;20412;-67
2022/01/03 06:53:23;;;;;;;5.00;2.03;;;;;;;;;;4978292;28;20401;-67
2022/01/03 06:55:49;;;;;;;5.60;1.80;;;;;;;;;;4977135;28;20969;-67
2022/01/03 06:58:15;;;;;;;5.20;1.80;;;;;;;;;;4977142;28;20409;-67
2022/01/03 07:00:41;;;;;;;5.10;2.03;;;;;;;;;;4977207;28;20408;-67
2022/01/03 07:03:07;;;;;;;3.20;1.40;;;;;;;;;;4976990;28;20417;-67
2022/01/03 07:05:33;;;;;;;3.40;1.93;;;;;;;;;;4977330;28;20412;-67
2022/01/03 07:07:59;;;;;;;3.07;1.70;;;;;;;;;;4977306;28;20413;-67
2022/01/03 07:10:26;;;;;;;4.90;2.00;;;;;;;;;;4976877;28;20444;-67
2022/01/03 07:12:53;;;;;;;5.23;1.67;;;;;;;;;;4975667;28;20444;-67
2022/01/03 07:20:50;;;;;;;3.20;1.80;;;;;;;;;;4977298;28;20801;-67
2022/01/03 07:23:16;;;;;;;5.13;1.73;;;;;;;;;;4976910;28;20425;-67
2022/01/03 07:25:44;;;;;;;6.03;2.23;;;;;;;;;;4977195;28;20746;-67
2022/01/03 07:28:10;;;;;;;8.33;2.37;;;;;;;;;;4976679;28;20401;-67
2022/01/03 07:30:36;;;;;;;2.73;1.60;;;;;;;;;;4976634;28;20409;-67
2022/01/03 07:33:02;;;;;;;4.20;1.83;;;;;;;;;;4976742;28;20453;-67
2022/01/03 07:35:28;;;;;;;3.60;1.47;;;;;;;;;;4976479;28;21089;-67
2022/01/03 07:37:54;;;;;;;5.60;2.27;;;;;;;;;;4976486;28;20919;-67
2022/01/03 07:40:23;;;;;;;6.27;2.33;;;;;;;;;;4976573;28;20792;-67
2022/01/03 07:42:49;;;;;;;5.57;1.90;;;;;;;;;;4976308;28;20441;-67
2022/01/03 07:45:15;;;;;;;4.93;1.47;;;;;;;;;;4976297;28;20918;-67
2022/01/03 07:47:41;;;;;;;9.03;2.07;;;;;;;;;;4975168;28;20410;-67
2022/01/03 07:50:08;;;;;;;7.67;2.10;;;;;;;;;;4976233;28;20464;-67
2022/01/03 07:52:34;;;;;;;3.40;1.80;;;;;;;;;;4975894;28;20429;-67
2022/01/03 07:55:00;;;;;;;3.43;1.63;;;;;;;;;;4975965;28;20456;-67
2022/01/03 07:57:26;;;;;;;6.97;2.10;;;;;;;;;;4976062;28;20424;-67
2022/01/03 07:59:52;;;;;;;4.17;1.57;;;;;;;;;;4976042;28;20402;-67
2022/01/03 08:02:19;;;;;;;4.93;1.40;;;;;;;;;;4975907;28;20436;-67
2022/01/03 08:04:45;;;;;;;4.17;2.33;;;;;;;;;;4976375;28;20409;-67
2022/01/03 08:07:11;;;;;;;5.23;1.67;;;;;;;;;;4976166;28;20413;-67
2022/01/03 08:09:37;;;;;;;5.13;2.03;;;;;;;;;;4975892;28;20408;-67
2022/01/03 08:12:05;;;;;;;5.30;2.70;;;;;;;;;;4975766;28;20479;-67
2022/01/03 08:14:31;;;;;;;7.03;1.93;;;;;;;;;;4975667;28;20463;-67
2022/01/03 08:16:57;;;;;;;3.73;1.70;;;;;;;;;;4975590;28;20504;-67
2022/01/03 08:19:23;;;;;;;3.53;1.63;;;;;;;;;;4976091;28;20410;-67
2022/01/03 08:21:50;;;;;;;4.20;1.60;;;;;;;;;;4975620;28;20568;-67
2022/01/03 08:24:16;;;;;;;4.53;1.43;;;;;;;;;;4975695;28;20492;-67
2022/01/03 08:26:42;;;;;;;7.13;1.70;;;;;;;;;;4975416;28;20405;-67
2022/01/03 08:29:09;;;;;;;4.13;1.63;;;;;;;;;;4975767;28;20498;-67
2022/01/03 08:31:36;;;;;;;4.57;1.60;;;;;;;;;;4975625;28;20433;-67
2022/01/03 08:34:03;;;;;;;12.20;2.77;;;;;;;;;;4974205;28;20918;-67
2022/01/03 08:36:29;;;;;;;5.00;1.70;;;;;;;;;;4975487;28;20475;-67
2022/01/03 08:38:55;;;;;;;4.43;1.83;;;;;;;;;;4975186;28;20444;-67
2022/01/03 08:41:21;;;;;;;5.00;1.77;;;;;;;;;;4974819;28;20938;-67
2022/01/03 08:43:47;;;;;;;5.07;1.90;;;;;;;;;;4975531;28;20405;-67
2022/01/03 08:46:13;;;;;;;3.33;1.57;;;;;;;;;;4975211;28;20833;-67
2022/01/03 08:48:39;;;;;;;9.20;2.00;;;;;;;;;;4974994;28;20448;-67
2022/01/03 08:51:05;;;;;;;3.17;1.60;;;;;;;;;;4975088;28;20401;-67
2022/01/03 08:53:31;;;;;;;2.60;1.30;;;;;;;;;;4974837;28;20789;-67
2022/01/03 08:55:58;;;;;;;4.13;1.33;;;;;;;;;;4974587;28;20446;-67
2022/01/03 08:58:24;;;;;;;3.80;1.53;;;;;;;;;;4974312;28;20488;-67
2022/01/03 09:00:50;;;;;;;5.30;1.93;;;;;;;;;;4974697;28;20401;-67
2022/01/03 09:03:17;;;;;;;6.80;2.30;;;;;;;;;;4974901;28;20436;-67
2022/01/03 09:05:43;;;;;;;4.23;1.80;;;;;;;;;;4974664;28;20410;-67
2022/01/03 09:08:09;;;;;;;8.10;2.57;;;;;;;;;;4974628;28;20413;-67
2022/01/03 09:10:36;;;;;;;5.00;1.73;;;;;;;;;;4974632;28;20416;-67
2022/01/03 09:13:02;;;;;;;4.80;1.80;;;;;;;;;;4974761;28;20543;-67
2022/01/03 09:15:28;;;;;;;6.80;1.60;;;;;;;;;;4974693;28;20872;-67
2022/01/03 09:17:54;;;;;;;3.40;1.20;;;;;;;;;;4974722;28;20810;-67
2022/01/03 09:20:21;;;;;;;5.50;1.60;;;;;;;;;;4974669;28;20890;-67
2022/01/03 09:22:49;;;;;;;2.23;1.37;;;;;;;;;;4974297;28;20417;-67
2022/01/03 09:30:34;;;;;;;5.93;1.40;;;;;;;;;;4974306;28;20428;-67
2022/01/03 09:33:00;;;;;;;4.60;2.10;;;;;;;;;;4974452;28;20513;-67
2022/01/03 09:35:26;;;;;;;3.00;1.87;;;;;;;;;;4974339;28;20448;-67
2022/01/03 09:37:52;;;;;;;9.37;1.70;;;;;;;;;;4974245;28;20464;-67
2022/01/03 09:40:19;;;;;;;2.57;1.30;;;;;;;;;;4974147;28;20433;-67
2022/01/03 09:42:51;;;;;;;2.60;1.33;;;;;;;;;;4973910;28;20550;-67
2022/01/03 09:45:17;;;;;;;2.87;1.20;;;;;;;;;;4974208;28;20412;-67
2022/01/03 09:47:44;;;;;;;5.93;2.90;;;;;;;;;;4974310;28;20413;-67
2022/01/03 09:50:12;;;;;;;6.17;1.73;;;;;;;;;;4974417;28;20413;-67
2022/01/03 09:52:38;;;;;;;4.50;1.70;;;;;;;;;;4974616;28;20429;-67
2022/01/03 09:55:05;;;;;;;5.00;1.53;;;;;;;;;;4974588;28;20818;-67
2022/01/03 09:57:31;;;;;;;4.23;1.30;;;;;;;;;;4974314;28;20413;-67
2022/01/03 09:59:58;;;;;;;8.40;1.47;;;;;;;;;;4975710;28;20772;-68
2022/01/03 10:02:25;;;;;;;3.30;1.53;;;;;;;;;;4975434;28;20417;-68
2022/01/03 10:04:51;;;;;;;5.10;1.73;;;;;;;;;;4974119;28;20405;-67
2022/01/03 10:07:19;;;;;;;5.57;2.03;;;;;;;;;;4972644;28;20468;-68
2022/01/03 10:09:45;;;;;;;5.90;1.77;;;;;;;;;;4974013;28;20433;-67
2022/01/03 10:12:15;;;;;;;5.03;1.30;;;;;;;;;;4977736;28;20432;-67
2022/01/03 10:14:42;;;;;;;6.03;1.77;;;;;;;;;;4977684;28;20409;-67
2022/01/03 10:17:09;;;;;;;10.70;1.40;;;;;;;;;;4977817;28;20401;-67
2022/01/03 10:19:54;;;;;;;4.60;1.47;;;;;;;;;;4977621;28;20484;-67
2022/01/03 10:22:25;;;;;;;3.40;1.30;;;;;;;;;;4976541;28;20798;-67
2022/01/03 10:24:51;;;;;;;3.60;1.63;;;;;;;;;;4977708;28;20491;-67
2022/01/03 10:27:17;;;;;;;5.10;1.43;;;;;;;;;;4977723;28;20464;-67
2022/01/03 10:29:53;;;;;;;4.33;2.03;;;;;;;;;;4977522;28;20398;-67
2022/01/03 10:32:24;;;;;;;4.43;1.50;;;;;;;;;;4977644;28;20420;-67
2022/01/03 10:34:50;;;;;;;3.07;1.40;;;;;;;;;;4977416;28;20788;-67
2022/01/03 10:37:17;;;;;;;4.67;1.60;;;;;;;;;;4977461;28;20840;-68
2022/01/03 10:39:43;;;;;;;4.60;1.70;;;;;;;;;;4977510;28;20405;-67
2022/01/03 10:42:14;;;;;;;5.30;1.60;;;;;;;;;;4977623;28;20448;-67
2022/01/03 10:44:41;;;;;;;5.53;1.47;;;;;;;;;;4975997;28;20512;-67
2022/01/03 10:47:08;;;;;;;2.60;1.27;;;;;;;;;;4975764;28;20417;-67
2022/01/03 10:49:36;;;;;;;3.40;1.33;;;;;;;;;;4977418;28;20409;-67
2022/01/03 10:52:19;;;;;;;7.13;1.53;;;;;;;;;;4977447;28;20425;-67
2022/01/03 10:54:46;;;;;;;3.97;1.30;;;;;;;;;;4976944;28;20463;-67
2022/01/03 10:57:14;;;;;;;3.40;1.70;;;;;;;;;;4977264;28;20409;-67
2022/01/03 10:59:40;;;;;;;3.40;1.47;;;;;;;;;;4976834;28;20433;-67
2022/01/03 11:02:10;;;;;;;7.63;1.27;;;;;;;;;;4976882;28;21038;-67
2022/01/03 11:13:10;;;;;;;3.13;1.23;;;;;;;;;;4976677;28;20475;-67
2022/01/03 11:15:37;;;;;;;5.40;1.73;;;;;;;;;;4963282;28;20551;-67
2022/01/03 11:18:13;;;;;;;5.80;1.40;;;;;;;;;;4976495;28;20902;-67
2022/01/03 11:20:39;;;;;;;4.40;1.73;;;;;;;;;;4976866;28;20437;-68
2022/01/03 11:23:05;;;;;;;6.17;2.00;;;;;;;;;;4976032;28;20441;-66
2022/01/03 11:25:32;;;;;;;3.80;1.27;;;;;;;;;;4976497;28;20413;-67
2022/01/03 11:28:00;;;;;;;3.63;1.40;;;;;;;;;;4976482;28;20409;-67
2022/01/03 11:30:26;;;;;;;5.20;1.50;;;;;;;;;;4976485;28;20410;-67
2022/01/03 11:32:53;;;;;;;4.80;1.20;;;;;;;;;;4976609;28;20793;-67
2022/01/03 11:35:19;;;;;;;4.47;1.70;;;;;;;;;;4976215;28;20603;-67
2022/01/03 11:37:46;;;;;;;5.73;1.50;;;;;;;;;;4976488;28;20458;-67
2022/01/03 11:40:14;;;;;;;5.93;2.13;;;;;;;;;;4976835;28;20901;-67
2022/01/03 11:42:41;;;;;;;5.10;2.13;;;;;;;;;;4976132;28;20451;-67
2022/01/03 11:45:08;;;;;;;5.20;1.20;;;;;;;;;;4976440;28;20417;-67
2022/01/03 11:47:35;;;;;;;3.80;1.50;;;;;;;;;;4976627;28;20416;-67
2022/01/03 11:50:01;;;;;;;3.90;1.70;;;;;;;;;;4976503;28;20416;-67
2022/01/03 11:52:28;;;;;;;4.23;1.23;;;;;;;;;;4976173;28;20429;-67
2022/01/03 11:54:55;;;;;;;5.17;1.73;;;;;;;;;;4975925;28;20705;-67
2022/01/03 11:57:40;;;;;;;8.40;1.60;;;;;;;;;;4976173;28;20432;-67
2022/01/03 12:05:43;;;;;;;5.40;1.50;;;;;;;;;;4975924;28;20436;-67
2022/01/03 12:08:19;;;;;;;2.97;1.20;;;;;;;;;;4975735;28;20417;-67
2022/01/03 12:10:46;;;;;;;4.27;1.53;;;;;;;;;;4976029;28;20420;-67
2022/01/03 12:13:12;;;;;;;3.00;1.23;;;;;;;;;;4975470;28;20425;-67
2022/01/03 12:15:41;;;;;;;5.03;1.63;;;;;;;;;;4975548;28;20459;-67
2022/01/03 12:18:25;;;;;;;4.60;2.40;;;;;;;;;;4975542;28;20409;-67
2022/01/03 12:20:51;;;;;;;2.90;1.30;;;;;;;;;;4975782;28;20398;-67
2022/01/03 12:23:36;;;;;;;5.83;1.20;;;;;;;;;;4975817;28;20429;-67
2022/01/03 12:26:12;;;;;;;5.53;1.60;;;;;;;;;;4975450;28;20409;-67
2022/01/03 12:28:57;;;;;;;7.13;1.87;;;;;;;;;;4975477;28;20417;-68
2022/01/03 12:31:23;;;;;;;4.90;1.30;;;;;;;;;;4975485;28;20429;-67
2022/01/03 12:34:07;;;;;;;3.70;1.30;;;;;;;;;;4974709;28;20901;-67
2022/01/03 12:36:33;;;;;;;4.80;1.50;;;;;;;;;;4975333;28;20809;-67
2022/01/03 12:39:07;;;;;;;3.87;1.20;;;;;;;;;;4975454;28;20904;-68
2022/01/03 12:41:52;;;;;;;6.13;2.23;;;;;;;;;;4975436;28;20941;-68
2022/01/03 12:44:36;;;;;;;5.40;2.00;;;;;;;;;;4974233;28;20508;-68
2022/01/03 12:47:15;;;;;;;3.20;1.40;;;;;;;;;;4975056;28;20472;-68
2022/01/03 12:49:41;;;;;;;4.73;1.17;;;;;;;;;;4975065;28;20408;-68
2022/01/03 12:52:14;;;;;;;3.73;1.97;;;;;;;;;;4975194;28;20421;-68
2022/01/03 12:54:40;;;;;;;5.13;1.50;;;;;;;;;;4974932;28;20412;-68
2022/01/03 12:57:14;;;;;;;5.40;1.53;;;;;;;;;;4974766;28;20453;-68
2022/01/03 12:59:41;;;;;;;4.90;1.83;;;;;;;;;;4974849;28;20413;-68
2022/01/03 13:02:29;;;;;;;5.80;2.40;;;;;;;;;;4974785;28;20476;-68
2022/01/03 13:04:55;;;;;;;3.93;1.30;;;;;;;;;;4974892;28;20409;-68
2022/01/03 13:07:25;;;;;;;4.60;1.70;;;;;;;;;;4974931;28;20397;-68
2022/01/03 13:09:51;;;;;;;2.47;1.30;;;;;;;;;;4973360;28;20406;-68
2022/01/03 13:12:17;;;;;;;5.50;1.53;;;;;;;;;;4974595;28;20444;-68
2022/01/03 13:14:44;;;;;;;7.50;1.90;;;;;;;;;;4974697;28;20397;-68
2022/01/03 13:17:11;;;;;;;3.80;1.77;;;;;;;;;;4974736;28;20401;-68
2022/01/03 13:19:37;;;;;;;2.97;1.30;;;;;;;;;;4974804;28;20450;-68
2022/01/03 13:22:05;;;;;;;3.20;1.20;;;;;;;;;;4974741;28;20409;-68
2022/01/03 13:24:31;;;;;;;3.50;1.50;;;;;;;;;;4974796;28;20436;-68
2022/01/03 13:27:03;;;;;;;3.90;1.70;;;;;;;;;;4974362;28;20389;-68
2022/01/03 13:29:31;;;;;;;3.27;1.40;;;;;;;;;;4974479;28;20398;-68
2022/01/03 13:31:57;;;;;;;5.40;1.93;;;;;;;;;;4974176;28;20428;-68
2022/01/03 13:34:25;;;;;;;8.23;1.80;;;;;;;;;;4974343;28;20477;-68
2022/01/03 13:36:51;;;;;;;3.63;1.77;;;;;;;;;;4974519;28;20452;-67
2022/01/03 13:39:21;;;;;;;5.77;1.50;;;;;;;;;;4974558;28;20830;-67
2022/01/03 13:41:49;;;;;;;4.70;1.33;;;;;;;;;;4974097;28;20448;-67
2022/01/03 13:44:37;;;;;;;4.77;1.53;;;;;;;;;;4974318;28;20413;-67
2022/01/03 13:49:48;;;;;;;2.60;1.33;;;;;;;;;;4974580;28;20380;-67
2022/01/03 13:52:14;;;;;;;4.17;1.57;;;;;;;;;;4974780;28;20425;-67
2022/01/03 13:54:40;;;;;;;4.47;2.03;;;;;;;;;;4974975;28;20827;-67
2022/01/03 13:57:07;;;;;;;3.83;1.53;;;;;;;;;;4975533;28;20949;-68
2022/01/03 13:59:35;;;;;;;2.70;1.40;;;;;;;;;;4977440;28;20413;-68
2022/01/03 14:02:04;;;;;;;4.50;1.73;;;;;;;;;;4974517;28;20495;-67
2022/01/03 14:04:30;;;;;;;5.87;1.67;;;;;;;;;;4974233;28;20439;-67
2022/01/03 14:07:12;;;;;;;3.27;1.50;;;;;;;;;;4973982;28;20409;-67
2022/01/03 14:09:42;;;;;;;3.77;1.60;;;;;;;;;;4974009;28;20410;-67
2022/01/03 14:12:09;;;;;;;2.77;1.50;;;;;;;;;;4974028;28;20524;-66
2022/01/03 14:14:37;;;;;;;2.37;1.30;;;;;;;;;;4973984;28;20882;-66
2022/01/03 14:17:06;;;;;;;5.00;1.40;;;;;;;;;;4973906;28;20809;-66
2022/01/03 14:19:32;;;;;;;6.07;1.37;;;;;;;;;;4974023;28;20492;-66
2022/01/03 14:22:08;;;;;;;3.23;1.40;;;;;;;;;;4973621;28;20492;-67
2022/01/03 14:24:34;;;;;;;3.73;1.27;;;;;;;;;;4973868;28;20570;-66
2022/01/03 14:27:00;;;;;;;3.00;1.20;;;;;;;;;;4974137;28;20744;-67
2022/01/03 14:29:39;;;;;;;5.67;1.53;;;;;;;;;;4973819;28;20890;-67
2022/01/03 14:32:12;;;;;;;4.27;1.67;;;;;;;;;;4973914;28;20443;-67
2022/01/03 14:34:38;;;;;;;5.00;1.80;;;;;;;;;;4973702;28;20727;-67
2022/01/03 14:37:05;;;;;;;3.57;1.70;;;;;;;;;;4974253;28;20460;-67
2022/01/03 14:39:32;;;;;;;2.80;1.53;;;;;;;;;;4973978;28;20526;-67
2022/01/03 14:42:00;;;;;;;3.87;1.47;;;;;;;;;;4973824;28;20469;-67
2022/01/03 14:44:26;;;;;;;3.53;1.30;;;;;;;;;;4974118;28;20437;-67
2022/01/03 14:47:03;;;;;;;3.20;1.20;;;;;;;;;;4973721;28;20476;-65
2022/01/03 14:49:29;;;;;;;2.17;1.10;;;;;;;;;;4973934;28;20404;-65
2022/01/03 14:51:55;;;;;;;3.47;1.90;;;;;;;;;;4973798;28;20794;-66
2022/01/03 14:54:25;;;;;;;1.70;1.00;;;;;;;;;;4973878;28;20934;-66
2022/01/03 14:56:53;;;;;;;2.63;1.20;;;;;;;;;;4975192;28;20436;-67
2022/01/03 14:59:21;;;;;;;3.13;1.53;;;;;;;;;;4977044;28;20496;-67
2022/01/03 15:01:48;;;;;;;2.90;1.30;;;;;;;;;;4977161;28;20782;-67
2022/01/03 15:04:15;;;;;;;1.50;0.90;;;;;;;;;;4977269;28;20408;-67
2022/01/03 15:06:41;;;;;;;2.70;1.30;;;;;;;;;;4976831;28;20758;-67
2022/01/03 15:09:07;;;;;;;2.27;1.00;;;;;;;;;;4977043;28;20409;-67
2022/01/03 15:11:33;;;;;;;2.50;1.27;;;;;;;;;;4977191;28;20432;-67
2022/01/03 15:13:59;;;;;;;3.83;1.30;;;;;;;;;;4976914;28;20765;-67
2022/01/03 15:16:26;;;;;;;2.17;1.20;;;;;;;;;;4977074;28;20787;-68